createdAt,value
2023-03-22T00:01:17.128Z,11.95
2023-03-22T00:06:40.924Z,11.35
2023-03-22T00:12:04.942Z,10.63
2023-03-22T00:17:28.400Z,11.88
2023-03-22T00:22:54.323Z,11.60
2023-03-22T00:28:22.911Z,11.30
2023-03-22T00:33:52.416Z,13.70
2023-03-22T00:39:21.074Z,13.95
2023-03-22T00:44:49.598Z,15.25
2023-03-22T00:50:14.014Z,13.88
2023-03-22T00:55:37.214Z,12.95
2023-03-22T01:01:07.463Z,10.90
2023-03-22T01:06:32.707Z,11.40
2023-03-22T01:12:03.018Z,12.20
2023-03-22T01:17:32.035Z,14.20
2023-03-22T01:22:58.584Z,14.98
2023-03-22T01:28:27.497Z,13.15
2023-03-22T01:33:56.146Z,12.07
2023-03-22T01:39:26.400Z,14.18
2023-03-22T01:45:17.320Z,13.35
2023-03-22T01:50:42.857Z,13.30
2023-03-22T01:56:08.751Z,14.73
2023-03-22T02:01:37.116Z,15.45
2023-03-22T02:07:09.922Z,17.35
2023-03-22T02:12:45.279Z,23.00
2023-03-22T02:18:36.312Z,15.05
2023-03-22T02:24:23.565Z,15.57
2023-03-22T02:29:57.175Z,13.80
2023-03-22T02:35:40.341Z,14.63
2023-03-22T02:41:10.702Z,14.10
2023-03-22T02:46:36.894Z,15.43
2023-03-22T02:52:01.119Z,14.63
2023-03-22T02:57:29.295Z,14.57
2023-03-22T03:02:53.874Z,14.88
2023-03-22T03:08:18.071Z,14.95
2023-03-22T03:13:42.101Z,15.93
2023-03-22T03:19:08.958Z,15.38
2023-03-22T03:24:36.431Z,14.85
2023-03-22T03:30:10.935Z,14.05
2023-03-22T03:35:37.890Z,13.45
2023-03-22T03:41:03.055Z,13.52
2023-03-22T03:46:34.343Z,13.35
2023-03-22T03:52:02.899Z,14.80
2023-03-22T03:57:31.028Z,15.32
2023-03-22T04:02:55.035Z,14.05
2023-03-22T04:08:36.781Z,15.07
2023-03-22T04:14:00.142Z,15.00
2023-03-22T04:19:23.684Z,15.88
2023-03-22T04:24:52.221Z,15.65
2023-03-22T04:30:19.616Z,16.33
2023-03-22T04:36:04.569Z,16.98
2023-03-22T04:41:40.778Z,17.63
2023-03-22T04:47:05.492Z,18.73
2023-03-22T04:52:36.548Z,19.65
2023-03-22T04:58:00.530Z,18.98
2023-03-22T05:03:23.614Z,19.98
2023-03-22T05:08:48.457Z,19.70
2023-03-22T05:14:17.873Z,21.27
2023-03-22T05:19:42.199Z,21.15
2023-03-22T05:25:08.035Z,22.13
2023-03-22T05:30:31.412Z,22.67
2023-03-22T05:36:01.327Z,19.90
2023-03-22T05:41:31.687Z,21.20
2023-03-22T05:46:55.023Z,19.58
2023-03-22T05:52:28.693Z,20.17
2023-03-22T05:58:10.959Z,20.43
2023-03-22T06:03:36.616Z,22.23
2023-03-22T06:09:16.919Z,20.80
2023-03-22T06:14:44.573Z,21.52
2023-03-22T06:20:20.966Z,22.25
2023-03-22T06:25:50.554Z,22.27
2023-03-22T06:31:15.984Z,21.35
2023-03-22T06:36:46.872Z,21.63
2023-03-22T06:42:15.682Z,22.60
2023-03-22T06:47:42.351Z,24.05
2023-03-22T06:53:10.754Z,22.17
2023-03-22T06:58:34.752Z,24.73
2023-03-22T07:03:59.472Z,24.58
2023-03-22T07:09:24.168Z,23.17
2023-03-22T07:14:49.680Z,22.52
2023-03-22T07:20:26.373Z,20.27
2023-03-22T07:25:49.650Z,19.45
2023-03-22T07:31:23.220Z,22.48
2023-03-22T07:36:58.022Z,23.23
2023-03-22T07:42:22.050Z,22.20
2023-03-22T07:48:00.571Z,20.95
2023-03-22T07:53:57.045Z,21.52
2023-03-22T07:59:20.399Z,23.67
2023-03-22T08:04:46.436Z,23.10
2023-03-22T08:10:15.413Z,24.85
2023-03-22T08:15:39.080Z,21.85
2023-03-22T08:21:02.795Z,22.58
2023-03-22T08:26:30.577Z,21.77
2023-03-22T08:32:04.003Z,22.40
2023-03-22T08:37:28.767Z,23.92
2023-03-22T08:42:52.951Z,22.60
2023-03-22T08:48:15.856Z,21.42
2023-03-22T08:54:04.509Z,22.45
2023-03-22T08:59:47.119Z,20.90
2023-03-22T09:05:21.384Z,18.85
2023-03-22T09:10:47.898Z,17.98
2023-03-22T09:16:13.942Z,15.35
2023-03-22T09:21:42.829Z,15.05
2023-03-22T09:27:13.628Z,13.88
2023-03-22T09:32:40.410Z,14.00
2023-03-22T09:38:06.080Z,14.40
2023-03-22T09:43:32.144Z,14.00
2023-03-22T09:48:58.791Z,12.75
2023-03-22T09:54:23.151Z,13.43
2023-03-22T09:59:51.340Z,13.65
2023-03-22T10:05:18.050Z,12.63
2023-03-22T10:10:43.296Z,13.70
2023-03-22T10:16:13.184Z,12.80
2023-03-22T10:21:43.326Z,13.80
2023-03-22T10:27:15.502Z,14.18
2023-03-22T10:32:56.685Z,12.75
2023-03-22T10:38:23.843Z,13.35
2023-03-22T10:43:48.831Z,13.25
2023-03-22T10:49:22.777Z,14.85
2023-03-22T10:54:47.274Z,13.50
2023-03-22T11:00:12.978Z,16.38
2023-03-22T11:05:35.820Z,14.55
2023-03-22T11:11:07.934Z,15.55
2023-03-22T11:16:30.622Z,13.93
2023-03-22T11:27:28.877Z,14.20
2023-03-22T11:33:03.260Z,14.85
2023-03-22T11:38:36.583Z,15.20
2023-03-22T11:44:02.909Z,16.23
2023-03-22T11:49:28.843Z,16.23
2023-03-22T11:54:52.153Z,15.70
2023-03-22T12:00:21.782Z,15.05
2023-03-22T12:05:46.281Z,14.77
2023-03-22T12:11:17.033Z,14.43
2023-03-22T12:16:45.632Z,14.70
2023-03-22T12:22:14.476Z,14.43
2023-03-22T12:27:48.606Z,11.98
2023-03-22T12:33:20.785Z,11.70
2023-03-22T12:38:48.343Z,12.45
2023-03-22T12:44:13.172Z,13.70
2023-03-22T12:49:40.491Z,12.45
2023-03-22T12:55:04.025Z,13.88
2023-03-22T13:00:28.748Z,13.57
2023-03-22T13:06:00.768Z,14.50
2023-03-22T13:11:24.383Z,13.27
2023-03-22T13:16:52.803Z,11.98
2023-03-22T13:22:18.874Z,10.88
2023-03-22T13:27:44.931Z,12.05
2023-03-22T13:33:15.306Z,11.98
2023-03-22T13:38:42.559Z,11.32
2023-03-22T13:44:21.066Z,10.32
2023-03-22T13:49:46.229Z,9.98
2023-03-22T13:55:37.216Z,9.90
2023-03-22T14:01:01.004Z,10.50
2023-03-22T14:06:25.581Z,10.57
2023-03-22T14:11:55.255Z,9.98
2023-03-22T14:17:23.264Z,11.75
